sensor_id;sensor_type;location;lat;lon;timestamp;P1;durP1;ratioP1;P2;durP2;ratioP2
35084;SDS011;21267;51.032;6.998;2023-09-19T06:51:58;6.85;;;1.58;;
35084;SDS011;21267;51.032;6.998;2023-09-19T07:01:40;6.70;;;2.30;;
35084;SDS011;21267;51.032;6.998;2023-09-19T07:48:16;12.63;;;2.92;;
35084;SDS011;21267;51.032;6.998;2023-09-19T07:50:43;8.85;;;2.15;;
35084;SDS011;21267;51.032;6.998;2023-09-19T07:53:10;14.57;;;2.47;;
35084;SDS011;21267;51.032;6.998;2023-09-19T07:55:40;10.65;;;2.17;;
35084;SDS011;21267;51.032;6.998;2023-09-19T08:00:34;12.77;;;2.42;;
35084;SDS011;21267;51.032;6.998;2023-09-19T08:03:01;13.80;;;2.40;;
35084;SDS011;21267;51.032;6.998;2023-09-19T08:05:41;13.38;;;2.38;;
35084;SDS011;21267;51.032;6.998;2023-09-19T08:08:10;8.73;;;2.22;;
35084;SDS011;21267;51.032;6.998;2023-09-19T08:10:41;9.45;;;2.22;;
35084;SDS011;21267;51.032;6.998;2023-09-19T08:13:12;9.65;;;2.03;;
35084;SDS011;21267;51.032;6.998;2023-09-19T08:15:44;12.23;;;3.28;;
35084;SDS011;21267;51.032;6.998;2023-09-19T08:18:11;13.55;;;2.97;;
35084;SDS011;21267;51.032;6.998;2023-09-19T08:20:38;12.33;;;2.53;;
35084;SDS011;21267;51.032;6.998;2023-09-19T08:23:08;6.55;;;2.05;;
35084;SDS011;21267;51.032;6.998;2023-09-19T08:25:35;7.90;;;2.30;;
35084;SDS011;21267;51.032;6.998;2023-09-19T08:28:04;9.93;;;2.60;;
35084;SDS011;21267;51.032;6.998;2023-09-19T08:30:35;11.07;;;2.15;;
35084;SDS011;21267;51.032;6.998;2023-09-19T08:33:01;8.90;;;2.40;;
35084;SDS011;21267;51.032;6.998;2023-09-19T08:35:31;11.32;;;2.20;;
35084;SDS011;21267;51.032;6.998;2023-09-19T08:37:58;7.87;;;2.57;;
35084;SDS011;21267;51.032;6.998;2023-09-19T08:40:30;9.90;;;2.78;;
35084;SDS011;21267;51.032;6.998;2023-09-19T08:43:00;11.55;;;2.63;;
35084;SDS011;21267;51.032;6.998;2023-09-19T08:45:27;8.77;;;2.90;;
35084;SDS011;21267;51.032;6.998;2023-09-19T08:56:17;5.80;;;1.85;;
35084;SDS011;21267;51.032;6.998;2023-09-19T08:58:48;11.43;;;2.10;;
35084;SDS011;21267;51.032;6.998;2023-09-19T09:01:20;9.32;;;2.10;;
35084;SDS011;21267;51.032;6.998;2023-09-19T09:03:54;10.70;;;2.17;;
35084;SDS011;21267;51.032;6.998;2023-09-19T09:06:22;13.38;;;2.58;;
35084;SDS011;21267;51.032;6.998;2023-09-19T09:08:50;9.07;;;2.53;;
35084;SDS011;21267;51.032;6.998;2023-09-19T09:11:21;8.02;;;1.77;;
35084;SDS011;21267;51.032;6.998;2023-09-19T09:13:49;9.32;;;1.48;;
35084;SDS011;21267;51.032;6.998;2023-09-19T09:16:17;6.85;;;1.55;;
35084;SDS011;21267;51.032;6.998;2023-09-19T09:18:46;5.85;;;1.02;;
35084;SDS011;21267;51.032;6.998;2023-09-19T09:21:23;9.38;;;2.08;;
35084;SDS011;21267;51.032;6.998;2023-09-19T09:23:51;3.10;;;1.30;;
35084;SDS011;21267;51.032;6.998;2023-09-19T09:29:05;4.82;;;1.70;;
35084;SDS011;21267;51.032;6.998;2023-09-19T09:31:32;6.30;;;1.85;;
35084;SDS011;21267;51.032;6.998;2023-09-19T09:33:59;5.75;;;1.50;;
35084;SDS011;21267;51.032;6.998;2023-09-19T09:36:36;9.93;;;1.98;;
35084;SDS011;21267;51.032;6.998;2023-09-19T09:39:05;6.05;;;2.08;;
35084;SDS011;21267;51.032;6.998;2023-09-19T09:41:45;6.43;;;1.75;;
35084;SDS011;21267;51.032;6.998;2023-09-19T09:44:14;5.93;;;1.48;;
35084;SDS011;21267;51.032;6.998;2023-09-19T09:46:44;6.13;;;1.40;;
35084;SDS011;21267;51.032;6.998;2023-09-19T09:49:22;8.32;;;1.73;;
35084;SDS011;21267;51.032;6.998;2023-09-19T09:52:00;5.43;;;1.13;;
35084;SDS011;21267;51.032;6.998;2023-09-19T09:54:36;4.95;;;1.42;;
35084;SDS011;21267;51.032;6.998;2023-09-19T09:57:10;4.20;;;1.27;;
35084;SDS011;21267;51.032;6.998;2023-09-19T09:59:47;7.32;;;1.45;;
35084;SDS011;21267;51.032;6.998;2023-09-19T10:02:26;4.82;;;1.67;;
35084;SDS011;21267;51.032;6.998;2023-09-19T10:04:59;4.53;;;1.48;;
35084;SDS011;21267;51.032;6.998;2023-09-19T10:07:50;8.55;;;2.17;;
35084;SDS011;21267;51.032;6.998;2023-09-19T10:12:56;7.30;;;1.70;;
35084;SDS011;21267;51.032;6.998;2023-09-19T10:15:31;6.47;;;1.70;;
35084;SDS011;21267;51.032;6.998;2023-09-19T10:18:01;2.95;;;1.40;;
35084;SDS011;21267;51.032;6.998;2023-09-19T10:20:31;8.48;;;1.60;;
35084;SDS011;21267;51.032;6.998;2023-09-19T10:23:11;3.67;;;1.55;;
35084;SDS011;21267;51.032;6.998;2023-09-19T10:25:39;3.58;;;1.05;;
35084;SDS011;21267;51.032;6.998;2023-09-19T10:28:09;6.18;;;1.85;;
35084;SDS011;21267;51.032;6.998;2023-09-19T10:30:42;3.78;;;1.30;;
35084;SDS011;21267;51.032;6.998;2023-09-19T10:33:12;4.03;;;1.65;;
35084;SDS011;21267;51.032;6.998;2023-09-19T10:35:47;6.13;;;1.58;;
35084;SDS011;21267;51.032;6.998;2023-09-19T10:38:18;5.90;;;1.48;;
35084;SDS011;21267;51.032;6.998;2023-09-19T10:40:52;4.57;;;1.20;;
35084;SDS011;21267;51.032;6.998;2023-09-19T10:43:21;6.15;;;1.77;;
35084;SDS011;21267;51.032;6.998;2023-09-19T10:45:52;8.95;;;1.50;;
35084;SDS011;21267;51.032;6.998;2023-09-19T10:48:23;2.88;;;1.13;;
35084;SDS011;21267;51.032;6.998;2023-09-19T10:51:02;5.28;;;1.75;;
35084;SDS011;21267;51.032;6.998;2023-09-19T10:56:26;4.38;;;1.55;;
35084;SDS011;21267;51.032;6.998;2023-09-19T10:59:08;6.15;;;1.90;;
35084;SDS011;21267;51.032;6.998;2023-09-19T11:01:56;3.15;;;1.50;;
35084;SDS011;21267;51.032;6.998;2023-09-19T11:07:07;3.45;;;1.25;;
35084;SDS011;21267;51.032;6.998;2023-09-19T11:09:55;6.68;;;2.03;;
35084;SDS011;21267;51.032;6.998;2023-09-19T11:14:55;4.55;;;1.30;;
35084;SDS011;21267;51.032;6.998;2023-09-19T11:30:53;4.22;;;0.77;;
35084;SDS011;21267;51.032;6.998;2023-09-19T11:33:21;2.40;;;1.10;;
35084;SDS011;21267;51.032;6.998;2023-09-19T11:43:49;5.97;;;1.90;;
35084;SDS011;21267;51.032;6.998;2023-09-19T11:46:20;6.93;;;2.20;;
35084;SDS011;21267;51.032;6.998;2023-09-19T11:48:48;5.10;;;1.90;;
35084;SDS011;21267;51.032;6.998;2023-09-19T11:51:20;1.95;;;0.93;;
35084;SDS011;21267;51.032;6.998;2023-09-19T11:53:50;3.25;;;1.20;;
35084;SDS011;21267;51.032;6.998;2023-09-19T11:56:19;5.68;;;2.00;;
35084;SDS011;21267;51.032;6.998;2023-09-19T11:58:48;8.02;;;1.95;;
35084;SDS011;21267;51.032;6.998;2023-09-19T12:01:29;7.63;;;2.33;;
35084;SDS011;21267;51.032;6.998;2023-09-19T12:03:59;5.70;;;2.10;;
35084;SDS011;21267;51.032;6.998;2023-09-19T12:06:28;6.28;;;2.15;;
35084;SDS011;21267;51.032;6.998;2023-09-19T12:08:58;6.13;;;1.98;;
35084;SDS011;21267;51.032;6.998;2023-09-19T12:14:01;5.30;;;1.98;;
35084;SDS011;21267;51.032;6.998;2023-09-19T12:16:28;5.45;;;1.42;;
35084;SDS011;21267;51.032;6.998;2023-09-19T12:19:17;3.72;;;1.50;;
35084;SDS011;21267;51.032;6.998;2023-09-19T12:21:58;2.72;;;1.20;;
35084;SDS011;21267;51.032;6.998;2023-09-19T12:24:31;4.72;;;2.20;;
35084;SDS011;21267;51.032;6.998;2023-09-19T12:27:05;4.50;;;1.65;;
35084;SDS011;21267;51.032;6.998;2023-09-19T12:29:48;4.88;;;1.58;;
35084;SDS011;21267;51.032;6.998;2023-09-19T12:32:16;4.88;;;1.55;;
35084;SDS011;21267;51.032;6.998;2023-09-19T12:34:52;4.88;;;1.40;;
35084;SDS011;21267;51.032;6.998;2023-09-19T12:37:21;7.38;;;1.77;;
35084;SDS011;21267;51.032;6.998;2023-09-19T12:39:50;3.47;;;1.52;;
35084;SDS011;21267;51.032;6.998;2023-09-19T12:42:21;3.83;;;2.20;;
35084;SDS011;21267;51.032;6.998;2023-09-19T12:44:51;3.35;;;1.48;;
35084;SDS011;21267;51.032;6.998;2023-09-19T12:47:24;4.57;;;1.67;;
35084;SDS011;21267;51.032;6.998;2023-09-19T12:52:41;8.38;;;1.77;;
35084;SDS011;21267;51.032;6.998;2023-09-19T12:55:19;3.42;;;1.70;;
35084;SDS011;21267;51.032;6.998;2023-09-19T12:58:00;4.15;;;1.67;;
35084;SDS011;21267;51.032;6.998;2023-09-19T13:00:43;2.20;;;0.88;;
35084;SDS011;21267;51.032;6.998;2023-09-19T13:03:12;5.22;;;1.63;;
35084;SDS011;21267;51.032;6.998;2023-09-19T13:05:56;5.28;;;1.60;;
35084;SDS011;21267;51.032;6.998;2023-09-19T13:08:40;3.55;;;1.50;;
35084;SDS011;21267;51.032;6.998;2023-09-19T13:11:16;3.47;;;1.52;;
35084;SDS011;21267;51.032;6.998;2023-09-19T13:13:49;3.03;;;1.48;;
35084;SDS011;21267;51.032;6.998;2023-09-19T13:16:21;4.13;;;1.40;;
35084;SDS011;21267;51.032;6.998;2023-09-19T13:18:54;3.15;;;0.85;;
35084;SDS011;21267;51.032;6.998;2023-09-19T13:21:31;3.95;;;1.60;;
35084;SDS011;21267;51.032;6.998;2023-09-19T13:24:19;3.75;;;1.45;;
35084;SDS011;21267;51.032;6.998;2023-09-19T13:26:46;3.10;;;0.98;;
35084;SDS011;21267;51.032;6.998;2023-09-19T13:29:13;2.92;;;1.10;;
35084;SDS011;21267;51.032;6.998;2023-09-19T13:31:47;2.78;;;1.30;;
35084;SDS011;21267;51.032;6.998;2023-09-19T13:34:15;4.28;;;0.98;;
35084;SDS011;21267;51.032;6.998;2023-09-19T13:36:46;4.65;;;1.27;;
35084;SDS011;21267;51.032;6.998;2023-09-19T13:39:16;3.40;;;1.08;;
35084;SDS011;21267;51.032;6.998;2023-09-19T13:41:44;2.47;;;1.20;;
35084;SDS011;21267;51.032;6.998;2023-09-19T13:44:13;2.63;;;0.85;;
35084;SDS011;21267;51.032;6.998;2023-09-19T13:46:40;4.93;;;1.55;;
35084;SDS011;21267;51.032;6.998;2023-09-19T13:49:12;5.28;;;1.30;;
35084;SDS011;21267;51.032;6.998;2023-09-19T13:51:39;1.67;;;0.68;;
35084;SDS011;21267;51.032;6.998;2023-09-19T13:54:10;5.47;;;0.65;;
35084;SDS011;21267;51.032;6.998;2023-09-19T13:56:38;2.90;;;0.90;;
35084;SDS011;21267;51.032;6.998;2023-09-19T13:59:06;3.58;;;0.47;;
35084;SDS011;21267;51.032;6.998;2023-09-19T14:01:33;5.50;;;1.20;;
35084;SDS011;21267;51.032;6.998;2023-09-19T14:04:00;5.63;;;1.55;;
35084;SDS011;21267;51.032;6.998;2023-09-19T14:06:29;4.05;;;1.17;;
35084;SDS011;21267;51.032;6.998;2023-09-19T14:09:29;5.05;;;1.95;;
35084;SDS011;21267;51.032;6.998;2023-09-19T14:12:32;3.42;;;1.20;;
35084;SDS011;21267;51.032;6.998;2023-09-19T14:19:38;3.00;;;0.77;;
35084;SDS011;21267;51.032;6.998;2023-09-19T14:22:25;4.63;;;0.73;;
35084;SDS011;21267;51.032;6.998;2023-09-19T17:58:38;2.75;;;0.90;;
35084;SDS011;21267;51.032;6.998;2023-09-19T18:01:06;2.85;;;1.10;;
35084;SDS011;21267;51.032;6.998;2023-09-19T18:03:37;2.50;;;1.13;;
35084;SDS011;21267;51.032;6.998;2023-09-19T18:06:08;3.90;;;1.50;;
35084;SDS011;21267;51.032;6.998;2023-09-19T18:08:36;2.08;;;0.95;;
35084;SDS011;21267;51.032;6.998;2023-09-19T18:13:31;2.95;;;0.90;;
35084;SDS011;21267;51.032;6.998;2023-09-19T18:15:58;4.73;;;1.20;;
35084;SDS011;21267;51.032;6.998;2023-09-19T18:18:25;4.20;;;1.00;;
35084;SDS011;21267;51.032;6.998;2023-09-19T18:20:52;5.25;;;1.10;;
35084;SDS011;21267;51.032;6.998;2023-09-19T18:23:19;3.47;;;1.00;;
35084;SDS011;21267;51.032;6.998;2023-09-19T18:25:47;2.35;;;1.10;;
35084;SDS011;21267;51.032;6.998;2023-09-19T18:28:15;2.63;;;1.17;;
35084;SDS011;21267;51.032;6.998;2023-09-19T18:30:41;4.83;;;1.27;;
35084;SDS011;21267;51.032;6.998;2023-09-19T18:33:08;4.37;;;2.27;;
35084;SDS011;21267;51.032;6.998;2023-09-19T18:35:35;5.97;;;1.58;;
35084;SDS011;21267;51.032;6.998;2023-09-19T18:38:02;2.10;;;1.20;;
35084;SDS011;21267;51.032;6.998;2023-09-19T18:40:30;2.70;;;1.27;;
35084;SDS011;21267;51.032;6.998;2023-09-19T18:42:56;4.57;;;1.00;;
35084;SDS011;21267;51.032;6.998;2023-09-19T18:45:23;3.83;;;1.40;;
35084;SDS011;21267;51.032;6.998;2023-09-19T18:48:06;3.30;;;1.20;;
35084;SDS011;21267;51.032;6.998;2023-09-19T18:50:34;6.03;;;2.28;;
35084;SDS011;21267;51.032;6.998;2023-09-19T18:53:01;3.25;;;1.20;;
35084;SDS011;21267;51.032;6.998;2023-09-19T18:55:28;3.20;;;1.40;;
35084;SDS011;21267;51.032;6.998;2023-09-19T18:57:55;6.53;;;1.23;;
35084;SDS011;21267;51.032;6.998;2023-09-19T19:00:21;6.13;;;3.10;;
35084;SDS011;21267;51.032;6.998;2023-09-19T19:02:52;5.25;;;1.40;;
35084;SDS011;21267;51.032;6.998;2023-09-19T19:07:48;5.95;;;1.40;;
35084;SDS011;21267;51.032;6.998;2023-09-19T19:10:15;3.63;;;0.80;;
35084;SDS011;21267;51.032;6.998;2023-09-19T19:12:42;5.70;;;1.30;;
35084;SDS011;21267;51.032;6.998;2023-09-19T19:15:09;2.40;;;0.82;;
35084;SDS011;21267;51.032;6.998;2023-09-19T19:17:36;4.10;;;1.60;;
35084;SDS011;21267;51.032;6.998;2023-09-19T19:20:04;7.47;;;1.38;;
35084;SDS011;21267;51.032;6.998;2023-09-19T19:22:33;3.00;;;1.48;;
35084;SDS011;21267;51.032;6.998;2023-09-19T19:25:03;1.45;;;0.90;;
35084;SDS011;21267;51.032;6.998;2023-09-19T19:27:35;2.58;;;1.10;;
35084;SDS011;21267;51.032;6.998;2023-09-19T19:30:04;7.60;;;1.17;;
35084;SDS011;21267;51.032;6.998;2023-09-19T19:32:33;3.63;;;1.55;;
35084;SDS011;21267;51.032;6.998;2023-09-19T19:35:00;6.60;;;3.40;;
35084;SDS011;21267;51.032;6.998;2023-09-19T19:37:27;4.88;;;2.03;;
35084;SDS011;21267;51.032;6.998;2023-09-19T19:39:54;4.97;;;1.75;;
35084;SDS011;21267;51.032;6.998;2023-09-19T19:42:21;5.10;;;1.97;;
35084;SDS011;21267;51.032;6.998;2023-09-19T19:44:50;5.22;;;1.58;;
35084;SDS011;21267;51.032;6.998;2023-09-19T19:47:21;4.68;;;1.27;;
35084;SDS011;21267;51.032;6.998;2023-09-19T19:49:48;5.05;;;1.40;;
35084;SDS011;21267;51.032;6.998;2023-09-19T19:52:15;4.05;;;1.50;;
35084;SDS011;21267;51.032;6.998;2023-09-19T19:54:42;3.58;;;1.40;;
35084;SDS011;21267;51.032;6.998;2023-09-19T19:57:10;4.55;;;1.40;;
35084;SDS011;21267;51.032;6.998;2023-09-19T19:59:38;3.03;;;1.10;;
35084;SDS011;21267;51.032;6.998;2023-09-19T20:02:05;4.72;;;1.50;;
35084;SDS011;21267;51.032;6.998;2023-09-19T20:04:33;4.73;;;1.30;;
35084;SDS011;21267;51.032;6.998;2023-09-19T20:09:26;2.97;;;0.97;;
35084;SDS011;21267;51.032;6.998;2023-09-19T20:11:53;5.33;;;1.20;;
35084;SDS011;21267;51.032;6.998;2023-09-19T20:14:20;3.37;;;1.23;;
35084;SDS011;21267;51.032;6.998;2023-09-19T20:19:15;5.10;;;1.45;;
35084;SDS011;21267;51.032;6.998;2023-09-19T20:21:41;6.37;;;1.17;;
35084;SDS011;21267;51.032;6.998;2023-09-19T20:24:08;5.53;;;1.63;;
35084;SDS011;21267;51.032;6.998;2023-09-19T20:26:37;3.45;;;1.27;;
35084;SDS011;21267;51.032;6.998;2023-09-19T20:29:07;3.47;;;1.48;;
35084;SDS011;21267;51.032;6.998;2023-09-19T20:31:35;6.30;;;1.60;;
35084;SDS011;21267;51.032;6.998;2023-09-19T20:34:03;6.57;;;1.30;;
35084;SDS011;21267;51.032;6.998;2023-09-19T20:36:30;2.07;;;1.30;;
35084;SDS011;21267;51.032;6.998;2023-09-19T20:38:58;2.78;;;1.13;;
35084;SDS011;21267;51.032;6.998;2023-09-19T20:41:25;4.80;;;1.30;;
35084;SDS011;21267;51.032;6.998;2023-09-19T20:43:52;3.28;;;1.13;;
35084;SDS011;21267;51.032;6.998;2023-09-19T20:46:19;4.27;;;1.43;;
35084;SDS011;21267;51.032;6.998;2023-09-19T20:48:47;7.00;;;1.70;;
35084;SDS011;21267;51.032;6.998;2023-09-19T20:51:15;4.30;;;1.52;;
35084;SDS011;21267;51.032;6.998;2023-09-19T20:53:47;3.42;;;1.45;;
35084;SDS011;21267;51.032;6.998;2023-09-19T20:58:41;3.65;;;1.88;;
35084;SDS011;21267;51.032;6.998;2023-09-19T21:01:09;4.10;;;1.60;;
35084;SDS011;21267;51.032;6.998;2023-09-19T21:03:37;4.22;;;1.60;;
35084;SDS011;21267;51.032;6.998;2023-09-19T21:06:06;5.95;;;1.85;;
35084;SDS011;21267;51.032;6.998;2023-09-19T21:08:34;3.88;;;1.38;;
35084;SDS011;21267;51.032;6.998;2023-09-19T21:11:15;3.17;;;1.15;;
35084;SDS011;21267;51.032;6.998;2023-09-19T21:13:43;4.95;;;1.30;;
35084;SDS011;21267;51.032;6.998;2023-09-19T21:16:11;4.13;;;1.48;;
35084;SDS011;21267;51.032;6.998;2023-09-19T21:18:41;3.40;;;1.25;;
35084;SDS011;21267;51.032;6.998;2023-09-19T21:21:09;6.75;;;1.25;;
35084;SDS011;21267;51.032;6.998;2023-09-19T21:23:37;4.25;;;1.52;;
35084;SDS011;21267;51.032;6.998;2023-09-19T21:26:06;4.10;;;1.10;;
35084;SDS011;21267;51.032;6.998;2023-09-19T21:28:40;5.05;;;1.48;;
35084;SDS011;21267;51.032;6.998;2023-09-19T21:31:08;5.03;;;1.48;;
35084;SDS011;21267;51.032;6.998;2023-09-19T21:36:04;3.63;;;0.98;;
35084;SDS011;21267;51.032;6.998;2023-09-19T21:38:46;4.93;;;1.33;;
35084;SDS011;21267;51.032;6.998;2023-09-19T21:41:14;7.15;;;1.70;;
35084;SDS011;21267;51.032;6.998;2023-09-19T21:43:45;4.78;;;1.40;;
35084;SDS011;21267;51.032;6.998;2023-09-19T21:46:17;6.68;;;1.63;;
35084;SDS011;21267;51.032;6.998;2023-09-19T21:48:45;5.72;;;1.42;;
35084;SDS011;21267;51.032;6.998;2023-09-19T21:51:15;7.15;;;2.30;;
35084;SDS011;21267;51.032;6.998;2023-09-19T21:53:42;3.72;;;1.50;;
35084;SDS011;21267;51.032;6.998;2023-09-19T21:56:09;4.57;;;1.45;;
35084;SDS011;21267;51.032;6.998;2023-09-19T21:58:36;3.30;;;1.30;;
35084;SDS011;21267;51.032;6.998;2023-09-19T22:01:05;5.00;;;1.50;;
35084;SDS011;21267;51.032;6.998;2023-09-19T22:03:37;5.82;;;1.77;;
35084;SDS011;21267;51.032;6.998;2023-09-19T22:06:08;6.15;;;1.40;;
35084;SDS011;21267;51.032;6.998;2023-09-19T22:08:36;3.83;;;1.50;;
35084;SDS011;21267;51.032;6.998;2023-09-19T22:11:04;4.10;;;1.52;;
35084;SDS011;21267;51.032;6.998;2023-09-19T22:13:38;7.45;;;1.63;;
35084;SDS011;21267;51.032;6.998;2023-09-19T22:16:09;4.07;;;1.88;;
35084;SDS011;21267;51.032;6.998;2023-09-19T22:18:42;4.25;;;1.50;;
35084;SDS011;21267;51.032;6.998;2023-09-19T22:21:12;4.20;;;1.83;;
35084;SDS011;21267;51.032;6.998;2023-09-19T22:23:45;6.45;;;1.60;;
35084;SDS011;21267;51.032;6.998;2023-09-19T22:26:16;4.03;;;1.60;;
35084;SDS011;21267;51.032;6.998;2023-09-19T22:28:48;3.90;;;1.60;;
35084;SDS011;21267;51.032;6.998;2023-09-19T22:31:20;5.75;;;1.60;;
35084;SDS011;21267;51.032;6.998;2023-09-19T22:33:49;5.32;;;1.58;;
35084;SDS011;21267;51.032;6.998;2023-09-19T22:36:17;5.15;;;1.63;;
35084;SDS011;21267;51.032;6.998;2023-09-19T22:38:53;4.90;;;1.73;;
35084;SDS011;21267;51.032;6.998;2023-09-19T22:41:20;7.22;;;1.98;;
35084;SDS011;21267;51.032;6.998;2023-09-19T22:43:48;5.88;;;1.63;;
35084;SDS011;21267;51.032;6.998;2023-09-19T22:46:17;3.90;;;1.58;;
35084;SDS011;21267;51.032;6.998;2023-09-19T22:48:45;5.32;;;1.45;;
35084;SDS011;21267;51.032;6.998;2023-09-19T22:51:17;3.53;;;1.60;;
35084;SDS011;21267;51.032;6.998;2023-09-19T22:53:52;4.78;;;1.65;;
35084;SDS011;21267;51.032;6.998;2023-09-19T22:56:24;4.30;;;1.52;;
35084;SDS011;21267;51.032;6.998;2023-09-19T22:58:54;6.38;;;1.85;;
35084;SDS011;21267;51.032;6.998;2023-09-19T23:01:22;6.07;;;1.98;;
35084;SDS011;21267;51.032;6.998;2023-09-19T23:04:01;3.95;;;1.55;;
35084;SDS011;21267;51.032;6.998;2023-09-19T23:06:46;3.58;;;1.55;;
35084;SDS011;21267;51.032;6.998;2023-09-19T23:09:15;3.97;;;1.40;;
35084;SDS011;21267;51.032;6.998;2023-09-19T23:14:22;4.90;;;1.83;;
35084;SDS011;21267;51.032;6.998;2023-09-19T23:16:56;5.47;;;1.80;;
35084;SDS011;21267;51.032;6.998;2023-09-19T23:19:23;4.83;;;1.67;;
35084;SDS011;21267;51.032;6.998;2023-09-19T23:21:57;4.35;;;1.92;;
35084;SDS011;21267;51.032;6.998;2023-09-19T23:24:32;4.72;;;1.88;;
35084;SDS011;21267;51.032;6.998;2023-09-19T23:27:04;6.80;;;1.80;;
35084;SDS011;21267;51.032;6.998;2023-09-19T23:29:36;5.18;;;1.60;;
35084;SDS011;21267;51.032;6.998;2023-09-19T23:32:06;5.00;;;1.60;;
35084;SDS011;21267;51.032;6.998;2023-09-19T23:34:34;4.82;;;1.92;;
35084;SDS011;21267;51.032;6.998;2023-09-19T23:37:01;3.10;;;1.30;;
35084;SDS011;21267;51.032;6.998;2023-09-19T23:39:30;3.80;;;1.45;;
35084;SDS011;21267;51.032;6.998;2023-09-19T23:41:56;5.55;;;1.88;;
35084;SDS011;21267;51.032;6.998;2023-09-19T23:44:23;5.00;;;1.50;;
35084;SDS011;21267;51.032;6.998;2023-09-19T23:46:50;3.60;;;1.50;;
35084;SDS011;21267;51.032;6.998;2023-09-19T23:49:22;4.80;;;1.80;;
35084;SDS011;21267;51.032;6.998;2023-09-19T23:51:49;5.57;;;1.80;;
35084;SDS011;21267;51.032;6.998;2023-09-19T23:54:18;2.80;;;1.60;;
35084;SDS011;21267;51.032;6.998;2023-09-19T23:56:52;5.53;;;1.77;;
